Time;durP1;ratioP1;P1;durP2;ratioP2;P2;SDS_P1;SDS_P2;PMS_P1;PMS_P2;Temp;Humidity;BMP_temperature;BMP_pressure;BME280_temperature;BME280_humidity;BME280_pressure;Samples;Min_cycle;Max_cycle;Signal;HPM_P1;HPM_P2
2022/04/08 00:00:37;;;;;;;11.90;4.07;;;;;;;;;;10451365;28;20032;-64
2022/04/08 00:05:38;;;;;;;11.48;3.65;;;;;;;;;;10423134;28;20280;-64
2022/04/08 00:10:38;;;;;;;7.55;3.70;;;;;;;;;;10409938;28;20025;-65
2022/04/08 00:15:40;;;;;;;12.07;3.45;;;;;;;;;;10409695;28;20029;-64
2022/04/08 00:20:40;;;;;;;9.20;4.20;;;;;;;;;;10438952;28;20029;-64
2022/04/08 00:25:41;;;;;;;9.27;3.80;;;;;;;;;;10449913;28;20419;-65
2022/04/08 00:30:42;;;;;;;6.93;3.53;;;;;;;;;;10450377;28;20269;-64
2022/04/08 00:35:42;;;;;;;10.13;3.75;;;;;;;;;;10448352;28;20516;-64
2022/04/08 00:40:43;;;;;;;5.03;3.22;;;;;;;;;;10449999;28;20070;-65
2022/04/08 00:45:45;;;;;;;8.40;3.15;;;;;;;;;;10449759;28;20526;-65
2022/04/08 00:50:45;;;;;;;10.90;3.60;;;;;;;;;;10414357;28;20452;-65
2022/04/08 00:55:46;;;;;;;6.55;3.25;;;;;;;;;;10408154;28;20042;-65
2022/04/08 01:00:47;;;;;;;6.03;3.60;;;;;;;;;;10407069;28;20045;-64
2022/04/08 01:05:47;;;;;;;5.88;3.15;;;;;;;;;;10444713;28;20028;-65
2022/04/08 01:10:49;;;;;;;7.43;3.33;;;;;;;;;;10448056;28;20078;-64
2022/04/08 01:15:50;;;;;;;8.45;3.38;;;;;;;;;;10449094;28;20029;-64
2022/04/08 01:20:51;;;;;;;7.95;3.28;;;;;;;;;;10408928;28;20033;-64
2022/04/08 01:25:51;;;;;;;5.57;3.00;;;;;;;;;;10407647;28;20040;-64
2022/04/08 01:30:52;;;;;;;5.90;3.08;;;;;;;;;;10408801;28;20083;-63
2022/04/08 01:35:52;;;;;;;6.28;3.83;;;;;;;;;;10421482;28;20030;-63
2022/04/08 01:40:53;;;;;;;8.98;3.70;;;;;;;;;;10415707;28;20033;-62
2022/04/08 01:45:54;;;;;;;6.28;3.75;;;;;;;;;;10424437;28;20488;-63
2022/04/08 01:50:54;;;;;;;7.95;3.75;;;;;;;;;;10456573;28;20052;-63
2022/04/08 01:55:55;;;;;;;5.72;3.35;;;;;;;;;;10456177;28;20061;-63
2022/04/08 02:00:55;;;;;;;7.50;4.00;;;;;;;;;;10422663;28;20032;-63
2022/04/08 02:05:56;;;;;;;5.18;3.58;;;;;;;;;;10414918;28;20025;-63
2022/04/08 02:10:57;;;;;;;5.78;4.15;;;;;;;;;;10415242;28;20034;-63
2022/04/08 02:15:57;;;;;;;6.28;3.90;;;;;;;;;;10416678;28;20091;-63
2022/04/08 02:20:58;;;;;;;5.88;3.83;;;;;;;;;;10442380;28;20041;-63
2022/04/08 02:25:58;;;;;;;8.73;3.97;;;;;;;;;;10455276;28;20032;-63
2022/04/08 02:30:59;;;;;;;8.73;3.95;;;;;;;;;;10416708;28;20672;-64
2022/04/08 02:36:00;;;;;;;5.43;3.83;;;;;;;;;;10413668;28;20055;-63
2022/04/08 02:41:01;;;;;;;6.65;3.97;;;;;;;;;;10413859;28;20036;-63
2022/04/08 02:46:02;;;;;;;5.07;3.88;;;;;;;;;;10453468;28;20491;-64
2022/04/08 02:51:02;;;;;;;5.88;4.15;;;;;;;;;;10454473;28;20051;-64
2022/04/08 02:56:03;;;;;;;7.05;4.20;;;;;;;;;;10451867;28;20055;-63
2022/04/08 03:01:04;;;;;;;5.57;3.90;;;;;;;;;;10413457;28;20025;-64
2022/04/08 03:06:05;;;;;;;7.15;4.18;;;;;;;;;;10413098;28;20092;-64
2022/04/08 03:11:06;;;;;;;4.55;3.53;;;;;;;;;;10413427;28;20022;-64
2022/04/08 03:16:06;;;;;;;7.75;4.07;;;;;;;;;;10453194;28;20037;-64
2022/04/08 03:21:07;;;;;;;6.93;3.80;;;;;;;;;;10453452;28;20044;-63
2022/04/08 03:26:07;;;;;;;6.63;4.20;;;;;;;;;;10453168;28;20036;-63
2022/04/08 03:31:09;;;;;;;11.70;4.53;;;;;;;;;;10433786;28;20028;-63
2022/04/08 03:36:10;;;;;;;4.93;3.80;;;;;;;;;;10411500;28;20118;-62
2022/04/08 03:41:10;;;;;;;6.07;4.22;;;;;;;;;;10411489;28;20021;-63
2022/04/08 03:46:13;;;;;;;5.80;4.38;;;;;;;;;;10430672;28;20035;-64
2022/04/08 03:51:14;;;;;;;5.15;4.07;;;;;;;;;;10452183;28;20028;-64
2022/04/08 03:56:14;;;;;;;5.88;4.18;;;;;;;;;;10451405;28;20056;-63
2022/04/08 04:01:15;;;;;;;7.13;4.15;;;;;;;;;;10429046;28;20709;-63
2022/04/08 04:06:15;;;;;;;6.00;4.32;;;;;;;;;;10410193;28;20033;-64
2022/04/08 04:11:16;;;;;;;4.75;3.90;;;;;;;;;;10410776;28;20037;-64
2022/04/08 04:16:17;;;;;;;6.10;4.05;;;;;;;;;;10434025;28;20124;-64
2022/04/08 04:21:17;;;;;;;5.30;3.72;;;;;;;;;;10451066;28;20409;-62
2022/04/08 04:26:18;;;;;;;5.45;4.07;;;;;;;;;;10450801;28;20029;-64
2022/04/08 04:31:19;;;;;;;5.63;4.10;;;;;;;;;;10424175;28;20512;-62
2022/04/08 04:36:19;;;;;;;5.35;4.38;;;;;;;;;;10409192;28;20404;-65
2022/04/08 04:41:20;;;;;;;4.70;4.00;;;;;;;;;;10409450;28;20039;-64
2022/04/08 04:46:20;;;;;;;6.47;4.10;;;;;;;;;;10437878;28;20099;-63
2022/04/08 04:51:21;;;;;;;4.88;4.00;;;;;;;;;;10450388;28;20031;-63
2022/04/08 04:56:22;;;;;;;6.43;4.28;;;;;;;;;;10450273;28;20037;-63
2022/04/08 05:01:22;;;;;;;5.43;4.00;;;;;;;;;;10445262;28;20032;-63
2022/04/08 05:06:23;;;;;;;6.85;4.68;;;;;;;;;;10449240;28;20036;-64
2022/04/08 05:11:23;;;;;;;7.60;4.38;;;;;;;;;;10449643;28;20033;-64
2022/04/08 05:16:24;;;;;;;4.28;3.88;;;;;;;;;;10418582;28;20413;-62
2022/04/08 05:21:24;;;;;;;5.47;4.25;;;;;;;;;;10431903;28;20025;-63
2022/04/08 05:26:25;;;;;;;5.65;3.78;;;;;;;;;;10444719;28;20114;-64
2022/04/08 05:31:26;;;;;;;5.03;3.83;;;;;;;;;;10420722;28;20029;-64
2022/04/08 05:36:27;;;;;;;8.35;4.15;;;;;;;;;;10443290;28;20029;-64
2022/04/08 05:41:27;;;;;;;4.80;3.83;;;;;;;;;;10449400;28;20048;-64
2022/04/08 05:46:28;;;;;;;5.15;4.43;;;;;;;;;;10443197;28;20041;-63
2022/04/08 05:51:28;;;;;;;9.75;4.38;;;;;;;;;;10440608;28;20109;-63
2022/04/08 05:56:29;;;;;;;6.45;3.50;;;;;;;;;;10435919;28;20497;-63
2022/04/08 06:01:30;;;;;;;9.68;3.97;;;;;;;;;;10439771;28;20424;-63
2022/04/08 06:06:30;;;;;;;7.30;4.25;;;;;;;;;;10425583;28;20377;-63
2022/04/08 06:11:31;;;;;;;10.20;3.75;;;;;;;;;;10419337;28;20025;-63
2022/04/08 06:16:31;;;;;;;12.10;4.70;;;;;;;;;;10430096;28;20087;-65
2022/04/08 06:21:32;;;;;;;14.70;4.50;;;;;;;;;;10423308;28;20033;-62
2022/04/08 06:26:34;;;;;;;31.27;5.10;;;;;;;;;;10432575;28;20059;-62
2022/04/08 06:31:35;;;;;;;27.05;6.22;;;;;;;;;;10413678;28;20172;-63
2022/04/08 06:36:35;;;;;;;23.02;4.90;;;;;;;;;;10416429;28;20130;-62
2022/04/08 06:41:36;;;;;;;19.83;4.78;;;;;;;;;;10414046;28;20030;-62
2022/04/08 06:46:36;;;;;;;18.15;6.15;;;;;;;;;;10414224;28;20041;-62
2022/04/08 06:51:37;;;;;;;12.57;5.25;;;;;;;;;;10450407;28;20021;-63
2022/04/08 06:56:38;;;;;;;12.95;4.75;;;;;;;;;;10435639;28;20044;-62
2022/04/08 07:01:38;;;;;;;13.27;4.60;;;;;;;;;;10449485;28;20037;-61
2022/04/08 07:06:39;;;;;;;8.13;4.78;;;;;;;;;;10453799;28;20025;-62
2022/04/08 07:12:00;;;;;;;10.10;5.05;;;;;;;;;;10451272;28;20040;-62
2022/04/08 07:17:01;;;;;;;7.55;4.95;;;;;;;;;;10364256;28;20116;-62
2022/04/08 07:22:02;;;;;;;7.15;5.40;;;;;;;;;;10362681;28;20088;-62
2022/04/08 07:27:03;;;;;;;8.15;5.32;;;;;;;;;;10362831;28;20672;-62
2022/04/08 07:32:04;;;;;;;10.65;4.93;;;;;;;;;;10360735;28;20042;-63
2022/04/08 07:37:05;;;;;;;12.40;5.32;;;;;;;;;;10362431;28;20042;-62
2022/04/08 07:42:06;;;;;;;11.00;4.93;;;;;;;;;;10360864;28;20077;-62
2022/04/08 07:47:08;;;;;;;13.50;4.93;;;;;;;;;;10361663;28;20083;-62
2022/04/08 07:52:09;;;;;;;9.73;5.35;;;;;;;;;;10391014;28;20488;-62
2022/04/08 07:57:13;;;;;;;8.07;4.95;;;;;;;;;;10435030;28;20049;-62
2022/04/08 08:02:14;;;;;;;9.57;5.60;;;;;;;;;;10449251;28;20116;-62
2022/04/08 08:07:15;;;;;;;16.45;5.90;;;;;;;;;;10440676;28;20043;-62
2022/04/08 08:12:15;;;;;;;6.85;4.90;;;;;;;;;;10447149;28;20029;-63
2022/04/08 08:17:16;;;;;;;9.80;5.18;;;;;;;;;;10446771;28;20033;-64
2022/04/08 08:22:17;;;;;;;8.23;4.50;;;;;;;;;;10447918;28;20029;-62
2022/04/08 08:27:17;;;;;;;7.22;5.05;;;;;;;;;;10449177;28;20025;-61
2022/04/08 08:32:18;;;;;;;6.95;4.72;;;;;;;;;;10443845;28;20021;-62
2022/04/08 08:37:19;;;;;;;14.60;4.47;;;;;;;;;;10434022;28;20061;-61
2022/04/08 08:42:20;;;;;;;8.55;4.43;;;;;;;;;;10432741;28;20060;-60
2022/04/08 08:47:22;;;;;;;4.93;4.43;;;;;;;;;;10431466;28;20037;-61
2022/04/08 08:52:23;;;;;;;14.55;4.70;;;;;;;;;;10428971;28;20112;-61
2022/04/08 08:57:24;;;;;;;8.70;4.50;;;;;;;;;;10425534;28;20056;-61
2022/04/08 09:02:25;;;;;;;11.63;4.70;;;;;;;;;;10432524;28;20479;-63
2022/04/08 09:07:27;;;;;;;8.48;4.22;;;;;;;;;;10437109;28;20028;-61
2022/04/08 09:12:28;;;;;;;5.65;3.90;;;;;;;;;;10443364;28;20103;-60
2022/04/08 09:17:29;;;;;;;13.18;3.85;;;;;;;;;;10431218;28;20080;-61
2022/04/08 09:22:36;;;;;;;6.45;3.60;;;;;;;;;;10433141;28;20028;-61
2022/04/08 09:27:38;;;;;;;6.95;3.95;;;;;;;;;;10414711;28;20026;-61
2022/04/08 09:32:39;;;;;;;10.88;3.78;;;;;;;;;;10434779;28;20036;-60
2022/04/08 09:37:39;;;;;;;6.28;4.10;;;;;;;;;;10447373;28;20029;-61
2022/04/08 09:42:45;;;;;;;6.07;3.60;;;;;;;;;;10435141;28;20033;-62
2022/04/08 09:47:46;;;;;;;9.40;4.30;;;;;;;;;;10412000;28;20032;-62
2022/04/08 09:52:46;;;;;;;6.28;3.75;;;;;;;;;;10445862;28;20036;-61
2022/04/08 09:57:55;;;;;;;7.03;3.95;;;;;;;;;;10445624;28;20492;-62
2022/04/08 10:02:59;;;;;;;7.72;4.65;;;;;;;;;;10454536;28;20606;-62
2022/04/08 10:08:00;;;;;;;7.65;3.97;;;;;;;;;;10414016;28;20037;-60
2022/04/08 10:13:24;;;;;;;7.07;4.38;;;;;;;;;;10428968;28;20029;-62
2022/04/08 10:18:37;;;;;;;7.75;4.13;;;;;;;;;;10449658;28;20021;-61
2022/04/08 10:23:45;;;;;;;13.25;4.07;;;;;;;;;;10456066;28;20035;-62
2022/04/08 10:28:46;;;;;;;7.07;4.20;;;;;;;;;;10414536;28;20469;-61
2022/04/08 10:33:49;;;;;;;8.20;4.35;;;;;;;;;;10419495;28;20477;-63
2022/04/08 10:38:50;;;;;;;8.23;4.78;;;;;;;;;;10421500;28;20024;-62
2022/04/08 10:43:52;;;;;;;7.65;4.28;;;;;;;;;;10433338;28;20052;-63
2022/04/08 10:48:58;;;;;;;10.52;5.47;;;;;;;;;;10432092;28;20485;-62
2022/04/08 10:54:05;;;;;;;11.27;5.85;;;;;;;;;;10425442;28;20515;-63
2022/04/08 10:59:05;;;;;;;8.23;5.43;;;;;;;;;;10442813;28;20041;-63
2022/04/08 11:04:07;;;;;;;9.57;5.75;;;;;;;;;;10450583;28;20488;-61
2022/04/08 11:09:14;;;;;;;13.10;5.88;;;;;;;;;;10452105;28;20021;-62
2022/04/08 11:14:14;;;;;;;9.63;5.60;;;;;;;;;;10450034;28;20526;-62
2022/04/08 11:19:15;;;;;;;14.45;7.13;;;;;;;;;;10449165;28;20017;-61
2022/04/08 11:24:19;;;;;;;9.98;6.68;;;;;;;;;;10443552;28;20052;-60
2022/04/08 11:29:23;;;;;;;9.70;6.32;;;;;;;;;;10445809;28;20078;-63
2022/04/08 11:34:27;;;;;;;15.50;6.95;;;;;;;;;;10412421;28;20030;-62
2022/04/08 11:39:30;;;;;;;12.55;6.63;;;;;;;;;;10439971;28;20056;-63
2022/04/08 11:44:31;;;;;;;14.65;6.97;;;;;;;;;;10452710;28;20396;-63
2022/04/08 11:49:32;;;;;;;16.33;7.72;;;;;;;;;;10423690;28;20060;-63
2022/04/08 11:54:38;;;;;;;11.40;7.07;;;;;;;;;;10417919;28;20021;-63
2022/04/08 11:59:39;;;;;;;12.85;7.07;;;;;;;;;;10417438;28;20049;-63
2022/04/08 12:04:41;;;;;;;23.27;8.10;;;;;;;;;;10411897;28;20029;-63
2022/04/08 12:09:42;;;;;;;14.88;7.88;;;;;;;;;;10410425;28;20618;-63
2022/04/08 12:14:42;;;;;;;13.63;8.30;;;;;;;;;;10409261;28;20048;-61
2022/04/08 12:19:43;;;;;;;11.77;6.75;;;;;;;;;;10442248;28;20033;-61
2022/04/08 12:24:47;;;;;;;12.15;7.68;;;;;;;;;;10451063;28;20025;-61
2022/04/08 12:30:08;;;;;;;23.23;7.88;;;;;;;;;;10439287;28;20037;-60
2022/04/08 12:35:11;;;;;;;23.88;8.07;;;;;;;;;;10433984;28;20075;-61
2022/04/08 12:40:12;;;;;;;20.98;7.57;;;;;;;;;;10450531;28;20033;-62
2022/04/08 12:45:12;;;;;;;22.65;8.25;;;;;;;;;;10442051;28;20021;-61
2022/04/08 12:50:13;;;;;;;18.17;8.55;;;;;;;;;;10448645;28;20033;-61
2022/04/08 12:55:13;;;;;;;18.85;7.38;;;;;;;;;;10447115;28;20070;-60
2022/04/08 13:00:16;;;;;;;20.30;8.10;;;;;;;;;;10449156;28;20124;-61
2022/04/08 13:05:16;;;;;;;20.63;8.10;;;;;;;;;;10441257;28;20496;-60
2022/04/08 13:10:17;;;;;;;17.30;7.50;;;;;;;;;;10442550;28;20036;-61
2022/04/08 13:15:17;;;;;;;21.10;7.40;;;;;;;;;;10409710;28;20044;-61
2022/04/08 13:20:18;;;;;;;16.23;7.80;;;;;;;;;;10419557;28;20049;-62
2022/04/08 13:25:20;;;;;;;13.32;6.97;;;;;;;;;;10438416;28;20053;-62
2022/04/08 13:30:21;;;;;;;20.27;8.10;;;;;;;;;;10423120;28;20028;-62
2022/04/08 13:35:22;;;;;;;17.38;6.68;;;;;;;;;;10453897;28;20104;-61
2022/04/08 13:40:25;;;;;;;17.27;7.30;;;;;;;;;;10445658;28;20029;-61
2022/04/08 13:45:27;;;;;;;11.73;6.60;;;;;;;;;;10434756;28;20028;-63
2022/04/08 13:50:27;;;;;;;15.75;6.60;;;;;;;;;;10455869;28;20025;-62
2022/04/08 13:55:28;;;;;;;17.92;7.32;;;;;;;;;;10451439;28;20029;-62
2022/04/08 14:00:28;;;;;;;12.68;6.35;;;;;;;;;;10456226;28;20424;-62
2022/04/08 14:05:29;;;;;;;15.05;6.60;;;;;;;;;;10455496;28;20384;-62
2022/04/08 14:10:30;;;;;;;18.63;6.15;;;;;;;;;;10454440;28;20044;-61
2022/04/08 14:15:31;;;;;;;12.32;5.78;;;;;;;;;;10455648;28;20037;-62
2022/04/08 14:20:31;;;;;;;16.83;5.32;;;;;;;;;;10454618;28;20447;-62
2022/04/08 14:25:32;;;;;;;16.08;5.43;;;;;;;;;;10454100;28;20039;-61
2022/04/08 14:30:33;;;;;;;23.73;6.13;;;;;;;;;;10455976;28;20057;-61
2022/04/08 14:35:33;;;;;;;16.00;5.60;;;;;;;;;;10455624;28;20041;-62
2022/04/08 14:40:34;;;;;;;15.85;5.75;;;;;;;;;;10451656;28;20488;-62
2022/04/08 14:45:35;;;;;;;17.60;6.15;;;;;;;;;;10453810;28;20036;-62
2022/04/08 14:50:36;;;;;;;18.52;6.72;;;;;;;;;;10454784;28;20392;-62
2022/04/08 14:55:37;;;;;;;14.15;6.05;;;;;;;;;;10438102;28;20029;-62
2022/04/08 15:00:38;;;;;;;17.08;5.82;;;;;;;;;;10443358;28;20021;-62
2022/04/08 15:05:38;;;;;;;24.30;6.65;;;;;;;;;;10454294;28;20039;-61
2022/04/08 15:10:39;;;;;;;17.13;6.32;;;;;;;;;;10448921;28;20068;-61
2022/04/08 15:15:40;;;;;;;22.05;6.43;;;;;;;;;;10453106;28;20186;-60
2022/04/08 15:20:40;;;;;;;23.10;6.68;;;;;;;;;;10439895;28;20029;-60
2022/04/08 15:25:41;;;;;;;26.83;8.00;;;;;;;;;;10424795;28;20037;-60
2022/04/08 15:30:41;;;;;;;24.10;7.45;;;;;;;;;;10430304;28;20079;-61
2022/04/08 15:35:42;;;;;;;17.17;7.03;;;;;;;;;;10447671;28;20021;-61
2022/04/08 15:40:43;;;;;;;25.40;7.32;;;;;;;;;;10448880;28;20029;-61
2022/04/08 15:45:43;;;;;;;20.02;7.38;;;;;;;;;;10450996;28;20033;-60
2022/04/08 15:50:44;;;;;;;24.42;7.78;;;;;;;;;;10450874;28;20719;-61
2022/04/08 15:55:47;;;;;;;17.60;6.65;;;;;;;;;;10444037;28;20021;-63
2022/04/08 16:00:47;;;;;;;17.23;7.10;;;;;;;;;;10450303;28;20020;-63
2022/04/08 16:05:48;;;;;;;14.25;6.30;;;;;;;;;;10447076;28;20037;-63
2022/04/08 16:10:50;;;;;;;19.13;7.18;;;;;;;;;;10441859;28;20039;-63
2022/04/08 16:15:51;;;;;;;14.68;6.85;;;;;;;;;;10437672;28;20053;-63
2022/04/08 16:20:51;;;;;;;11.98;6.15;;;;;;;;;;10444342;28;20040;-62
2022/04/08 16:25:52;;;;;;;22.42;6.72;;;;;;;;;;10443572;28;20037;-62
2022/04/08 16:30:52;;;;;;;11.48;6.13;;;;;;;;;;10442339;28;20095;-61
2022/04/08 16:35:53;;;;;;;15.48;6.35;;;;;;;;;;10448940;28;20032;-62
2022/04/08 16:40:54;;;;;;;18.27;6.45;;;;;;;;;;10445656;28;20515;-60
2022/04/08 16:45:54;;;;;;;16.15;5.95;;;;;;;;;;10435868;28;20037;-62
2022/04/08 16:50:55;;;;;;;10.30;5.55;;;;;;;;;;10433206;28;20392;-61
2022/04/08 16:55:56;;;;;;;15.27;6.32;;;;;;;;;;10418612;28;20182;-62
2022/04/08 17:00:56;;;;;;;14.80;5.65;;;;;;;;;;10420171;28;20036;-63
2022/04/08 17:05:57;;;;;;;14.32;6.35;;;;;;;;;;10444888;28;20037;-63
2022/04/08 17:10:57;;;;;;;11.45;5.50;;;;;;;;;;10432648;28;20025;-63
2022/04/08 17:15:58;;;;;;;13.00;5.43;;;;;;;;;;10441032;28;20388;-63
2022/04/08 17:20:59;;;;;;;14.43;5.20;;;;;;;;;;10447306;28;20075;-63
2022/04/08 17:26:02;;;;;;;19.00;5.95;;;;;;;;;;10430564;28;20059;-62
2022/04/08 17:31:04;;;;;;;10.02;5.03;;;;;;;;;;10424335;28;20145;-62
2022/04/08 17:36:05;;;;;;;9.13;5.00;;;;;;;;;;10417817;28;20397;-63
2022/04/08 17:41:06;;;;;;;10.45;5.15;;;;;;;;;;10431365;28;20051;-63
2022/04/08 17:46:07;;;;;;;13.65;5.10;;;;;;;;;;10427844;28;20033;-63
2022/04/08 17:51:07;;;;;;;15.43;5.00;;;;;;;;;;10430959;28;20017;-63
2022/04/08 17:56:09;;;;;;;14.52;5.40;;;;;;;;;;10420908;28;20049;-63
2022/04/08 18:01:10;;;;;;;13.43;5.70;;;;;;;;;;10439123;28;20033;-60
2022/04/08 18:06:11;;;;;;;14.55;5.55;;;;;;;;;;10428718;28;20032;-60
2022/04/08 18:11:12;;;;;;;11.18;5.00;;;;;;;;;;10434678;28;20037;-61
2022/04/08 18:16:13;;;;;;;10.68;4.80;;;;;;;;;;10421480;28;20530;-60
2022/04/08 18:21:14;;;;;;;15.02;5.57;;;;;;;;;;10432674;28;20036;-60
2022/04/08 18:26:14;;;;;;;12.15;5.03;;;;;;;;;;10439919;28;20481;-60
2022/04/08 18:31:16;;;;;;;9.75;5.20;;;;;;;;;;10429797;28;20503;-61
2022/04/08 18:36:19;;;;;;;14.32;4.90;;;;;;;;;;10443413;28;20029;-61
2022/04/08 18:41:19;;;;;;;16.23;4.95;;;;;;;;;;10433947;28;20025;-61
2022/04/08 18:46:20;;;;;;;11.88;4.63;;;;;;;;;;10438982;28;20028;-60
2022/04/08 18:51:20;;;;;;;14.07;4.80;;;;;;;;;;10436277;28;20033;-61
2022/04/08 18:56:21;;;;;;;19.85;5.65;;;;;;;;;;10430917;28;20048;-62
2022/04/08 19:01:24;;;;;;;13.85;4.40;;;;;;;;;;10433529;28;20067;-61
2022/04/08 19:06:25;;;;;;;10.25;4.78;;;;;;;;;;10418634;28;20045;-60
2022/04/08 19:11:25;;;;;;;14.52;4.38;;;;;;;;;;10431877;28;20084;-61
2022/04/08 19:16:26;;;;;;;21.13;4.50;;;;;;;;;;10421615;28;20116;-63
2022/04/08 19:21:27;;;;;;;20.65;5.75;;;;;;;;;;10422916;28;20056;-62
2022/04/08 19:26:28;;;;;;;26.33;6.20;;;;;;;;;;10437956;28;20029;-60
2022/04/08 19:31:29;;;;;;;20.17;5.63;;;;;;;;;;10431627;28;20580;-61
2022/04/08 19:36:29;;;;;;;19.65;5.47;;;;;;;;;;10445602;28;20481;-61
2022/04/08 19:41:30;;;;;;;23.67;4.72;;;;;;;;;;10450635;28;20491;-61
2022/04/08 19:46:31;;;;;;;14.27;4.85;;;;;;;;;;10452432;28;20033;-61
2022/04/08 19:51:32;;;;;;;18.55;5.35;;;;;;;;;;10435483;28;20025;-61
2022/04/08 19:56:34;;;;;;;11.63;4.68;;;;;;;;;;10441709;23;20073;-50
2022/04/08 20:01:37;;;;;;;18.70;5.30;;;;;;;;;;10381477;28;20030;-48
2022/04/08 20:06:38;;;;;;;14.70;4.40;;;;;;;;;;10371132;28;20044;-50
2022/04/08 20:11:38;;;;;;;9.88;4.40;;;;;;;;;;10369901;28;20398;-49
2022/04/08 20:16:39;;;;;;;12.35;4.10;;;;;;;;;;10369626;28;20084;-49
2022/04/08 20:21:40;;;;;;;11.20;4.93;;;;;;;;;;10369238;28;20026;-49
2022/04/08 20:26:41;;;;;;;11.25;4.63;;;;;;;;;;10369131;28;20054;-48
2022/04/08 20:31:43;;;;;;;14.05;4.47;;;;;;;;;;10368919;28;20038;-49
2022/04/08 20:36:43;;;;;;;9.02;4.30;;;;;;;;;;10369019;28;20113;-49
2022/04/08 20:41:44;;;;;;;13.23;4.30;;;;;;;;;;10368042;28;20037;-49
2022/04/08 20:52:06;;;;;;;15.02;4.60;;;;;;;;;;10259259;28;20675;-48
2022/04/08 20:57:06;;;;;;;8.63;3.50;;;;;;;;;;10268842;28;20098;-48
2022/04/08 21:02:08;;;;;;;14.75;4.20;;;;;;;;;;10281026;28;20047;-48
2022/04/08 21:07:09;;;;;;;12.30;4.15;;;;;;;;;;10281501;28;20047;-49
2022/04/08 21:12:10;;;;;;;7.00;4.00;;;;;;;;;;10279490;28;20038;-50
2022/04/08 21:17:11;;;;;;;9.95;3.83;;;;;;;;;;10281308;28;20642;-48
2022/04/08 21:22:12;;;;;;;7.45;3.75;;;;;;;;;;10279535;28;20503;-50
2022/04/08 21:27:12;;;;;;;11.38;4.20;;;;;;;;;;10310980;28;20038;-51
2022/04/08 21:32:14;;;;;;;9.85;3.67;;;;;;;;;;10342104;28;20130;-50
2022/04/08 21:37:14;;;;;;;8.25;3.70;;;;;;;;;;10337551;28;20029;-50
2022/04/08 21:42:15;;;;;;;5.10;3.60;;;;;;;;;;10343624;28;20492;-50
2022/04/08 21:47:16;;;;;;;10.57;4.07;;;;;;;;;;10355802;28;20030;-53
2022/04/08 21:52:16;;;;;;;6.72;3.80;;;;;;;;;;10345113;28;20038;-47
2022/04/08 21:57:17;;;;;;;16.33;4.07;;;;;;;;;;10401633;28;20405;-56
2022/04/08 22:02:17;;;;;;;18.80;4.20;;;;;;;;;;10341439;28;20370;-47
2022/04/08 22:07:18;;;;;;;10.73;4.07;;;;;;;;;;10364301;28;20296;-47
2022/04/08 22:12:18;;;;;;;12.13;3.55;;;;;;;;;;10360913;28;20037;-47
2022/04/08 22:17:19;;;;;;;18.83;4.35;;;;;;;;;;10353741;28;20030;-49
2022/04/08 22:22:19;;;;;;;10.90;3.97;;;;;;;;;;10343240;28;20080;-56
2022/04/08 22:27:20;;;;;;;19.33;4.60;;;;;;;;;;10369540;28;20037;-53
2022/04/08 22:32:21;;;;;;;26.95;4.20;;;;;;;;;;10366720;28;20085;-49
2022/04/08 22:37:22;;;;;;;12.55;4.05;;;;;;;;;;10362763;28;20045;-49
2022/04/08 22:42:23;;;;;;;13.63;3.38;;;;;;;;;;10372865;28;20536;-50
2022/04/08 22:47:25;;;;;;;8.55;4.20;;;;;;;;;;10367101;28;20037;-51
2022/04/08 22:52:26;;;;;;;21.50;3.38;;;;;;;;;;10372659;28;20088;-55
2022/04/08 22:57:26;;;;;;;14.65;3.42;;;;;;;;;;10377448;28;20092;-51
2022/04/08 23:02:31;;;;;;;10.00;3.45;;;;;;;;;;10371916;28;20033;-54
2022/04/08 23:07:32;;;;;;;12.80;4.45;;;;;;;;;;10371704;28;20109;-51
2022/04/08 23:12:32;;;;;;;16.70;3.92;;;;;;;;;;10372106;28;20136;-50
2022/04/08 23:17:33;;;;;;;12.18;3.70;;;;;;;;;;10371347;28;20098;-50
2022/04/08 23:22:34;;;;;;;10.20;3.40;;;;;;;;;;10371551;28;20512;-50
2022/04/08 23:27:34;;;;;;;12.45;3.83;;;;;;;;;;10370222;28;20030;-49
2022/04/08 23:32:35;;;;;;;9.65;2.90;;;;;;;;;;10371047;28;20436;-51
2022/04/08 23:37:35;;;;;;;16.58;3.10;;;;;;;;;;10360641;28;20386;-51
2022/04/08 23:42:36;;;;;;;9.98;3.40;;;;;;;;;;10330314;28;20022;-53
2022/04/08 23:47:36;;;;;;;6.80;3.15;;;;;;;;;;10344141;28;20401;-55
2022/04/08 23:52:37;;;;;;;10.15;3.50;;;;;;;;;;10337186;28;20363;-55
2022/04/08 23:57:38;;;;;;;11.05;3.38;;;;;;;;;;10378742;28;20409;-50
